DFFD/OUA METAR and TAF weather

Enter ICAO airport designator
Station Type Date Time Source
DFFD METAR 2019/10/21 06:00 UTC NOAA

DFFD 210600Z 14003KT 9999 FEW021 24/23 Q1012 NOSIG


Station Type Date Time Source
DFFD Decoded METAR 2019/10/21 06:00 UTC NOAA

Ouagadougou, Burkina Faso (DFFD) 12-21N 001-31W 306M
Oct 21, 2019 - 02:00 AM EDT / 2019.10.21 0600 UTC
Wind: from the SE (140 degrees) at 3 MPH (3 KT):0
Visibility: greater than 7 mile(s):0
Sky conditions: mostly clear
Temperature: 75 F (24 C)
Dew Point: 73 F (23 C)
Relative Humidity: 94%
Pressure (altimeter): 29.88 in. Hg (1012 hPa)
ob: DFFD 210600Z 14003KT 9999 FEW021 24/23 Q1012 NOSIG
cycle: 6

Station Type Date Time Source
DFFD TAF 2019/10/21 06:21 UTC NOAA

TAF TAF DFFD 210500Z 2106/2212 16008KT 9999 FEW020
TEMPO 2116/2124 VRB25G35KT 4000 BLSA TSRA SCT020 FEW036CB

Example: see airport list